createdAt,value
2023-03-26T00:00:44.585Z,80.62
2023-03-26T00:03:16.948Z,80.40
2023-03-26T00:05:48.554Z,80.28
2023-03-26T00:08:20.229Z,79.89
2023-03-26T00:10:51.219Z,79.21
2023-03-26T00:13:21.947Z,78.77
2023-03-26T00:15:55.871Z,78.51
2023-03-26T00:18:31.024Z,78.29
2023-03-26T00:21:03.166Z,78.26
2023-03-26T00:23:35.645Z,77.87
2023-03-26T00:26:10.837Z,77.74
2023-03-26T00:28:41.714Z,77.97
2023-03-26T00:31:17.693Z,77.74
2023-03-26T00:33:48.551Z,77.30
2023-03-26T00:36:20.275Z,77.27
2023-03-26T00:38:53.285Z,77.06
2023-03-26T00:41:31.348Z,77.08
2023-03-26T00:44:03.302Z,76.50
2023-03-26T00:46:36.719Z,76.55
2023-03-26T00:49:11.254Z,76.53
2023-03-26T00:51:42.251Z,76.72
2023-03-26T00:54:13.043Z,77.19
2023-03-26T00:56:43.851Z,77.06
2023-03-26T00:59:14.766Z,77.47
2023-03-26T01:01:48.105Z,77.52
2023-03-26T01:04:28.523Z,77.74
2023-03-26T01:07:01.982Z,77.95
2023-03-26T01:09:37.905Z,77.93
2023-03-26T01:12:10.344Z,78.40
2023-03-26T01:14:41.994Z,78.12
2023-03-26T01:17:16.356Z,78.24
2023-03-26T01:19:53.161Z,78.29
2023-03-26T01:22:26.520Z,78.14
2023-03-26T01:24:59.819Z,78.10
2023-03-26T01:27:42.018Z,78.03
2023-03-26T01:30:21.502Z,77.17
2023-03-26T01:33:02.236Z,76.87
2023-03-26T01:35:40.985Z,76.72
2023-03-26T01:38:23.926Z,75.85
2023-03-26T01:41:03.466Z,76.07
2023-03-26T01:43:39.782Z,75.63
2023-03-26T01:46:12.864Z,75.84
2023-03-26T01:48:46.486Z,76.31
2023-03-26T01:51:18.242Z,76.34
2023-03-26T01:53:50.861Z,76.34
2023-03-26T01:56:29.937Z,76.31
2023-03-26T01:59:16.670Z,76.31
2023-03-26T02:01:55.226Z,75.95
2023-03-26T02:04:33.420Z,76.39
2023-03-26T02:07:10.802Z,76.43
2023-03-26T02:09:50.205Z,76.14
2023-03-26T02:12:26.055Z,75.91
2023-03-26T02:14:57.505Z,75.80
2023-03-26T02:17:30.501Z,75.41
2023-03-26T02:20:06.452Z,75.24
2023-03-26T02:22:41.174Z,75.04
2023-03-26T02:25:16.171Z,75.30
2023-03-26T02:27:50.701Z,75.04
2023-03-26T02:30:25.960Z,75.12
2023-03-26T02:33:00.434Z,75.22
2023-03-26T02:35:39.154Z,75.20
2023-03-26T02:38:10.377Z,74.65
2023-03-26T02:40:41.256Z,74.75
2023-03-26T02:43:15.344Z,74.61
2023-03-26T02:45:47.193Z,74.80
2023-03-26T02:48:48.261Z,74.49
2023-03-26T02:51:25.547Z,74.37
2023-03-26T02:54:03.217Z,73.81
2023-03-26T02:56:37.342Z,73.09
2023-03-26T02:59:24.505Z,72.77
2023-03-26T03:02:15.072Z,71.89
2023-03-26T03:04:46.177Z,71.58
2023-03-26T03:07:17.391Z,71.14
2023-03-26T03:09:51.009Z,71.04
2023-03-26T03:12:44.876Z,70.38
2023-03-26T03:15:18.608Z,70.09
2023-03-26T03:17:49.700Z,70.05
2023-03-26T03:20:22.271Z,69.82
2023-03-26T03:22:52.982Z,69.62
2023-03-26T03:25:23.826Z,69.46
2023-03-26T03:27:54.686Z,69.21
2023-03-26T03:30:28.750Z,69.04
2023-03-26T03:33:13.466Z,68.28
2023-03-26T03:35:46.256Z,68.51
2023-03-26T03:38:17.211Z,68.54
2023-03-26T03:40:53.654Z,68.23
2023-03-26T03:43:24.575Z,67.98
2023-03-26T03:46:16.467Z,67.96
2023-03-26T03:48:52.752Z,67.25
2023-03-26T03:51:37.458Z,67.52
2023-03-26T03:54:21.033Z,67.97
2023-03-26T03:56:51.836Z,68.00
2023-03-26T03:59:47.840Z,67.69
2023-03-26T04:02:26.877Z,68.01
2023-03-26T04:05:02.700Z,68.17
2023-03-26T04:07:34.270Z,68.16
2023-03-26T04:10:09.395Z,68.08
2023-03-26T04:13:18.755Z,68.27
2023-03-26T04:16:09.918Z,68.42
2023-03-26T04:18:45.498Z,68.28
2023-03-26T04:21:19.711Z,68.28
2023-03-26T04:23:50.621Z,68.07
2023-03-26T04:26:48.397Z,68.01
2023-03-26T04:29:22.367Z,67.62
2023-03-26T04:31:58.974Z,67.79
2023-03-26T04:34:33.699Z,67.81
2023-03-26T04:37:20.976Z,67.56
2023-03-26T04:40:08.694Z,67.11
2023-03-26T04:42:46.536Z,67.04
2023-03-26T04:45:30.648Z,66.66
2023-03-26T04:48:02.700Z,66.54
2023-03-26T04:50:36.396Z,66.75
2023-03-26T04:53:07.541Z,66.16
2023-03-26T04:56:15.166Z,66.12
2023-03-26T04:59:05.382Z,66.04
2023-03-26T05:01:42.176Z,65.67
2023-03-26T05:04:15.449Z,65.87
2023-03-26T05:06:49.838Z,65.26
2023-03-26T05:09:26.807Z,65.01
2023-03-26T05:12:17.753Z,64.38
2023-03-26T05:15:00.308Z,64.42
2023-03-26T05:18:00.448Z,63.74
2023-03-26T05:20:36.258Z,63.94
2023-03-26T05:23:12.741Z,63.62
2023-03-26T05:25:49.326Z,63.53
2023-03-26T05:28:25.129Z,63.07
2023-03-26T05:31:01.314Z,62.67
2023-03-26T05:33:36.386Z,62.49
2023-03-26T05:36:13.501Z,61.02
2023-03-26T05:38:50.323Z,61.62
2023-03-26T05:41:40.933Z,62.29
2023-03-26T05:44:11.660Z,62.45
2023-03-26T05:46:42.402Z,62.70
2023-03-26T05:49:17.026Z,61.94
2023-03-26T05:51:47.744Z,62.23
2023-03-26T05:54:40.426Z,61.88
2023-03-26T05:57:35.739Z,59.51
2023-03-26T06:00:49.098Z,57.97
2023-03-26T06:03:32.234Z,56.65
2023-03-26T06:06:23.172Z,56.21
2023-03-26T06:09:02.208Z,54.98
2023-03-26T06:11:37.089Z,53.24
2023-03-26T06:14:09.380Z,51.56
2023-03-26T06:16:43.124Z,48.71
2023-03-26T06:19:24.754Z,48.03
2023-03-26T06:22:01.403Z,45.44
2023-03-26T06:24:37.536Z,44.48
2023-03-26T06:27:36.945Z,44.48
2023-03-26T06:30:43.162Z,44.03
2023-03-26T06:33:25.330Z,43.23
2023-03-26T06:35:56.660Z,42.56
2023-03-26T06:38:28.324Z,42.08
2023-03-26T06:41:05.809Z,42.02
2023-03-26T06:43:57.557Z,40.69
2023-03-26T06:46:47.183Z,40.26
2023-03-26T06:49:17.926Z,40.85
2023-03-26T06:52:18.131Z,38.24
2023-03-26T06:55:03.943Z,38.08
2023-03-26T06:58:10.028Z,36.79
2023-03-26T07:01:01.870Z,35.95
2023-03-26T07:03:51.269Z,35.47
2023-03-26T07:06:54.431Z,33.21
2023-03-26T07:09:43.902Z,34.53
2023-03-26T07:12:46.992Z,33.92
2023-03-26T07:15:24.072Z,33.16
2023-03-26T07:18:20.068Z,32.16
2023-03-26T07:20:52.998Z,32.18
2023-03-26T07:23:26.042Z,32.62
2023-03-26T07:26:01.984Z,29.71
2023-03-26T07:29:04.660Z,30.28
2023-03-26T07:31:49.242Z,29.82
2023-03-26T07:34:49.658Z,29.76
2023-03-26T07:37:39.618Z,29.16
2023-03-26T07:40:21.153Z,30.00
2023-03-26T07:43:16.934Z,28.56
2023-03-26T07:46:08.993Z,28.74
2023-03-26T07:48:52.172Z,27.69
2023-03-26T07:51:48.955Z,26.40
2023-03-26T07:54:31.174Z,27.37
2023-03-26T07:57:41.054Z,26.97
2023-03-26T08:00:51.853Z,27.75
2023-03-26T08:03:45.308Z,26.87
2023-03-26T08:06:38.669Z,28.05
2023-03-26T08:09:29.827Z,27.81
2023-03-26T08:12:27.768Z,27.55
2023-03-26T08:15:06.346Z,27.08
2023-03-26T08:17:43.103Z,26.94
2023-03-26T08:20:26.468Z,26.76
2023-03-26T08:23:04.311Z,25.62
2023-03-26T08:25:47.522Z,25.83
2023-03-26T08:28:30.856Z,25.32
2023-03-26T08:31:03.680Z,25.82
2023-03-26T08:33:38.386Z,24.88
2023-03-26T08:36:10.094Z,25.62
2023-03-26T08:38:40.718Z,24.45
2023-03-26T08:41:41.093Z,24.01
2023-03-26T08:44:52.750Z,22.98
2023-03-26T08:47:49.728Z,22.39
2023-03-26T08:51:01.874Z,23.36
2023-03-26T08:54:16.889Z,23.48
2023-03-26T08:56:59.410Z,22.93
2023-03-26T09:00:13.792Z,22.83
2023-03-26T09:03:14.407Z,22.71
2023-03-26T09:06:08.858Z,23.01
2023-03-26T09:09:29.414Z,24.12
2023-03-26T09:12:20.828Z,24.83
2023-03-26T09:15:28.149Z,25.31
2023-03-26T09:18:19.439Z,25.17
2023-03-26T09:21:26.133Z,24.68
2023-03-26T09:24:27.650Z,25.37
2023-03-26T09:27:11.343Z,25.04
2023-03-26T09:30:03.046Z,24.52
2023-03-26T09:33:07.592Z,24.96
2023-03-26T09:36:09.903Z,26.07
2023-03-26T09:38:47.021Z,26.44
2023-03-26T09:41:24.364Z,26.53
2023-03-26T09:44:42.531Z,25.70
2023-03-26T09:47:48.156Z,25.09
2023-03-26T09:50:38.474Z,27.19
2023-03-26T09:53:41.311Z,26.59
2023-03-26T09:56:31.742Z,27.02
2023-03-26T09:59:34.735Z,26.90
2023-03-26T10:02:45.578Z,27.95
2023-03-26T10:05:34.581Z,27.95
2023-03-26T10:08:15.706Z,27.66
2023-03-26T10:10:55.434Z,26.55
2023-03-26T10:13:39.060Z,27.96
2023-03-26T10:16:23.321Z,28.15
2023-03-26T10:19:11.926Z,28.52
2023-03-26T10:21:49.170Z,27.27
2023-03-26T10:24:48.999Z,26.18
2023-03-26T10:27:34.056Z,26.63
2023-03-26T10:30:29.545Z,26.36
2023-03-26T10:33:12.860Z,25.81
2023-03-26T10:35:56.597Z,25.99
2023-03-26T10:38:42.985Z,25.59
2023-03-26T10:41:20.896Z,25.58
2023-03-26T10:44:16.019Z,26.07
2023-03-26T10:47:30.414Z,25.64
2023-03-26T10:50:26.688Z,25.82
2023-03-26T10:53:02.489Z,26.58
2023-03-26T10:55:39.614Z,26.84
2023-03-26T10:58:19.778Z,27.71
2023-03-26T11:00:57.888Z,27.64
2023-03-26T11:03:52.220Z,26.42
2023-03-26T11:06:33.830Z,26.80
2023-03-26T11:09:26.563Z,25.63
2023-03-26T11:12:03.814Z,25.41
2023-03-26T11:15:01.480Z,26.08
2023-03-26T11:17:46.593Z,25.74
2023-03-26T11:20:23.559Z,26.06
2023-03-26T11:23:07.344Z,26.09
2023-03-26T11:25:54.179Z,24.81
2023-03-26T11:28:37.198Z,25.05
2023-03-26T11:31:17.963Z,24.27
2023-03-26T11:33:54.877Z,24.05
2023-03-26T11:36:36.187Z,23.98
2023-03-26T11:39:14.046Z,24.71
2023-03-26T11:41:44.721Z,25.59
2023-03-26T11:44:37.522Z,25.74
2023-03-26T11:47:12.530Z,25.06
2023-03-26T11:49:44.820Z,24.85
2023-03-26T11:52:18.787Z,24.03
2023-03-26T11:54:50.931Z,23.66
2023-03-26T11:57:28.201Z,23.35
2023-03-26T12:00:04.583Z,22.86
2023-03-26T12:02:44.372Z,22.92
2023-03-26T12:05:19.588Z,23.94
2023-03-26T12:07:57.335Z,23.30
2023-03-26T12:10:32.135Z,24.49
2023-03-26T12:13:04.885Z,22.90
2023-03-26T12:15:35.853Z,23.87
2023-03-26T12:18:27.168Z,23.91
2023-03-26T12:21:08.320Z,23.93
2023-03-26T12:23:47.879Z,23.85
2023-03-26T12:26:21.090Z,24.10
2023-03-26T12:28:53.221Z,23.51
2023-03-26T12:31:26.775Z,23.71
2023-03-26T12:34:10.872Z,23.45
2023-03-26T12:36:41.668Z,23.16
2023-03-26T12:40:07.088Z,23.12
2023-03-26T12:44:51.383Z,23.19
2023-03-26T12:45:25.919Z,22.51
2023-03-26T12:48:04.286Z,23.67
2023-03-26T12:50:48.747Z,23.38
2023-03-26T12:53:45.471Z,24.26
2023-03-26T12:56:24.753Z,23.74
2023-03-26T12:59:19.400Z,23.95
2023-03-26T13:01:58.118Z,23.72
2023-03-26T13:05:05.157Z,23.54
2023-03-26T13:07:54.546Z,23.21
2023-03-26T13:10:51.688Z,22.66
2023-03-26T13:13:50.681Z,22.71
2023-03-26T13:16:30.387Z,23.14
2023-03-26T13:19:05.538Z,23.24
2023-03-26T13:21:42.024Z,22.82
2023-03-26T13:24:22.009Z,23.56
2023-03-26T13:27:07.423Z,23.78
2023-03-26T13:29:50.265Z,23.53
2023-03-26T13:32:30.144Z,23.29
2023-03-26T13:35:13.721Z,23.29
2023-03-26T13:37:53.838Z,23.19
2023-03-26T13:40:29.734Z,23.52
2023-03-26T13:43:26.486Z,23.11
2023-03-26T13:46:08.211Z,22.97
2023-03-26T13:48:45.246Z,23.16
2023-03-26T13:51:21.527Z,22.65
2023-03-26T13:53:58.192Z,21.07
2023-03-26T13:56:35.736Z,21.97
2023-03-26T13:59:16.058Z,21.90
2023-03-26T14:01:54.276Z,22.19
2023-03-26T14:04:32.889Z,22.00
2023-03-26T14:07:10.676Z,22.14
2023-03-26T14:09:48.636Z,22.63
2023-03-26T14:12:45.026Z,23.01
2023-03-26T14:15:21.818Z,23.13
2023-03-26T14:18:01.536Z,23.03
2023-03-26T14:21:11.932Z,22.60
2023-03-26T14:24:23.402Z,22.72
2023-03-26T14:27:20.331Z,22.18
2023-03-26T14:30:20.620Z,22.75
2023-03-26T14:33:10.661Z,22.95
2023-03-26T14:35:47.777Z,23.19
2023-03-26T14:38:55.424Z,23.14
2023-03-26T14:41:30.780Z,23.21
2023-03-26T14:44:48.217Z,23.36
2023-03-26T14:47:22.197Z,23.48
2023-03-26T14:50:26.996Z,23.59
2023-03-26T14:53:06.521Z,23.96
2023-03-26T14:55:59.371Z,24.34
2023-03-26T14:59:03.993Z,24.78
2023-03-26T15:02:02.589Z,24.68
2023-03-26T15:04:55.416Z,25.40
2023-03-26T15:08:11.203Z,25.29
2023-03-26T15:11:02.446Z,25.96
2023-03-26T15:13:52.176Z,25.62
2023-03-26T15:17:02.483Z,26.17
2023-03-26T15:20:03.698Z,26.64
2023-03-26T15:23:11.874Z,26.42
2023-03-26T15:26:25.750Z,26.50
2023-03-26T15:29:30.396Z,26.11
2023-03-26T15:32:30.510Z,26.02
2023-03-26T15:35:35.003Z,26.17
2023-03-26T15:38:54.276Z,25.95
2023-03-26T15:41:34.925Z,25.66
2023-03-26T15:44:32.993Z,26.38
2023-03-26T15:47:34.710Z,26.35
2023-03-26T15:50:22.437Z,26.11
2023-03-26T15:53:03.676Z,26.21
2023-03-26T15:55:42.502Z,26.73
2023-03-26T15:58:24.573Z,27.06
2023-03-26T16:01:03.091Z,27.25
2023-03-26T16:03:43.530Z,27.24
2023-03-26T16:06:32.566Z,27.41
2023-03-26T16:09:18.067Z,27.51
2023-03-26T16:11:56.732Z,27.40
2023-03-26T16:14:47.177Z,27.87
2023-03-26T16:17:22.050Z,28.13
2023-03-26T16:19:58.077Z,28.53
2023-03-26T16:22:48.585Z,28.68
2023-03-26T16:25:30.576Z,28.89
2023-03-26T16:28:35.857Z,28.75
2023-03-26T16:31:39.612Z,29.18
2023-03-26T16:34:28.810Z,29.18
2023-03-26T16:37:02.392Z,29.31
2023-03-26T16:39:44.612Z,29.70
2023-03-26T16:42:35.072Z,29.73
2023-03-26T16:45:20.981Z,29.71
2023-03-26T16:48:04.033Z,29.87
2023-03-26T16:50:45.553Z,29.96
2023-03-26T16:53:42.066Z,30.00
2023-03-26T16:56:21.719Z,30.36
2023-03-26T16:59:00.649Z,30.55
2023-03-26T17:01:41.661Z,30.89
2023-03-26T17:04:23.484Z,31.03
2023-03-26T17:07:04.469Z,31.36
2023-03-26T17:09:52.202Z,31.54
2023-03-26T17:12:34.879Z,31.59
2023-03-26T17:15:21.089Z,31.60
2023-03-26T17:18:06.378Z,31.79
2023-03-26T17:20:46.154Z,32.06
2023-03-26T17:23:30.532Z,32.28
2023-03-26T17:26:19.724Z,32.43
2023-03-26T17:29:16.406Z,32.65
2023-03-26T17:31:56.277Z,32.94
2023-03-26T17:34:59.512Z,33.87
2023-03-26T17:37:46.259Z,34.35
2023-03-26T17:40:51.294Z,34.82
2023-03-26T17:43:40.737Z,34.66
2023-03-26T17:46:29.044Z,34.97
2023-03-26T17:49:07.991Z,35.02
2023-03-26T17:51:51.998Z,35.28
2023-03-26T17:54:32.451Z,35.28
2023-03-26T17:57:08.548Z,35.26
2023-03-26T17:59:40.433Z,35.57
2023-03-26T18:02:17.963Z,36.01
2023-03-26T18:04:51.938Z,35.81
2023-03-26T18:07:52.316Z,36.51
2023-03-26T18:10:42.211Z,36.72
2023-03-26T18:13:37.564Z,37.00
2023-03-26T18:16:18.086Z,36.85
2023-03-26T18:18:53.793Z,37.18
2023-03-26T18:21:28.987Z,37.67
2023-03-26T18:24:01.640Z,37.90
2023-03-26T18:26:43.001Z,38.17
2023-03-26T18:29:20.782Z,39.96
2023-03-26T18:31:55.757Z,41.02
2023-03-26T18:34:29.638Z,44.99
2023-03-26T18:37:16.079Z,46.89
2023-03-26T18:40:02.358Z,49.90
2023-03-26T18:42:37.190Z,52.31
2023-03-26T18:45:12.426Z,52.71
2023-03-26T18:47:44.104Z,53.77
2023-03-26T18:50:20.125Z,53.59
2023-03-26T18:52:51.569Z,53.80
2023-03-26T18:55:24.174Z,53.18
2023-03-26T18:57:58.126Z,52.63
2023-03-26T19:00:31.047Z,52.58
2023-03-26T19:03:08.405Z,52.91
2023-03-26T19:05:39.920Z,52.84
2023-03-26T19:08:11.037Z,52.96
2023-03-26T19:10:41.861Z,53.65
2023-03-26T19:13:18.180Z,54.90
2023-03-26T19:15:50.897Z,56.02
2023-03-26T19:18:24.926Z,56.05
2023-03-26T19:20:59.223Z,55.92
2023-03-26T19:23:34.214Z,56.04
2023-03-26T19:26:07.076Z,55.86
2023-03-26T19:28:43.249Z,55.25
2023-03-26T19:31:22.841Z,54.98
2023-03-26T19:34:00.265Z,55.49
2023-03-26T19:36:34.994Z,55.54
2023-03-26T19:39:21.613Z,54.45
2023-03-26T19:41:58.683Z,53.49
2023-03-26T19:44:33.833Z,53.33
2023-03-26T19:47:08.995Z,52.22
2023-03-26T19:49:53.835Z,51.67
2023-03-26T19:52:28.350Z,51.34
2023-03-26T19:55:05.157Z,50.62
2023-03-26T19:57:39.474Z,50.41
2023-03-26T20:00:17.495Z,50.00
2023-03-26T20:02:49.112Z,49.50
2023-03-26T20:05:26.566Z,49.25
2023-03-26T20:08:00.975Z,49.24
2023-03-26T20:10:31.801Z,48.97
2023-03-26T20:13:02.441Z,49.17
2023-03-26T20:15:37.650Z,48.79
2023-03-26T20:18:08.892Z,48.79
2023-03-26T20:20:41.335Z,48.68
2023-03-26T20:23:18.069Z,48.90
2023-03-26T20:25:54.733Z,48.57
2023-03-26T20:28:25.676Z,48.20
2023-03-26T20:30:59.289Z,48.06
2023-03-26T20:33:31.741Z,47.94
2023-03-26T20:36:03.184Z,48.22
2023-03-26T20:38:39.625Z,48.06
2023-03-26T20:41:15.453Z,47.83
2023-03-26T20:43:46.377Z,47.87
2023-03-26T20:46:22.083Z,48.13
2023-03-26T20:48:54.089Z,48.20
2023-03-26T20:51:28.987Z,48.30
2023-03-26T20:54:00.802Z,48.30
2023-03-26T20:56:31.661Z,48.26
2023-03-26T20:59:10.428Z,48.24
2023-03-26T21:01:44.646Z,48.48
2023-03-26T21:04:16.444Z,48.75
2023-03-26T21:06:47.288Z,48.82
2023-03-26T21:09:24.128Z,48.55
2023-03-26T21:12:08.408Z,49.16
2023-03-26T21:14:41.960Z,48.87
2023-03-26T21:17:19.658Z,49.03
2023-03-26T21:19:52.293Z,48.89
2023-03-26T21:22:33.906Z,49.23
2023-03-26T21:25:18.834Z,48.96
2023-03-26T21:27:58.871Z,49.44
2023-03-26T21:30:30.154Z,49.46
2023-03-26T21:33:05.617Z,49.43
2023-03-26T21:35:37.440Z,50.07
2023-03-26T21:38:09.726Z,49.71
2023-03-26T21:40:46.962Z,49.55
2023-03-26T21:43:24.997Z,50.41
2023-03-26T21:45:57.746Z,50.08
2023-03-26T21:48:32.245Z,50.79
2023-03-26T21:51:07.410Z,50.37
2023-03-26T21:53:39.132Z,50.50
2023-03-26T21:56:21.973Z,50.23
2023-03-26T21:59:01.878Z,50.90
2023-03-26T22:01:41.103Z,50.88
2023-03-26T22:04:21.363Z,50.79
2023-03-26T22:06:58.381Z,50.83
2023-03-26T22:09:36.278Z,50.89
2023-03-26T22:12:07.841Z,51.43
2023-03-26T22:14:39.025Z,51.60
2023-03-26T22:17:09.734Z,51.99
2023-03-26T22:19:43.111Z,51.79
2023-03-26T22:22:15.166Z,51.83
2023-03-26T22:24:45.779Z,51.92
2023-03-26T22:27:16.469Z,52.38
2023-03-26T22:29:47.609Z,52.22
2023-03-26T22:32:18.372Z,52.82
2023-03-26T22:34:52.484Z,52.85
2023-03-26T22:37:24.126Z,53.34
2023-03-26T22:39:55.056Z,53.24
2023-03-26T22:42:26.215Z,53.59
2023-03-26T22:44:57.227Z,54.29
2023-03-26T22:47:27.886Z,54.82
2023-03-26T22:50:02.307Z,55.09
2023-03-26T22:52:33.986Z,55.72
2023-03-26T22:55:05.093Z,56.31
2023-03-26T22:57:35.910Z,57.62
2023-03-26T23:00:15.157Z,57.53
2023-03-26T23:02:47.842Z,58.43
2023-03-26T23:05:21.495Z,56.82
2023-03-26T23:07:52.547Z,58.01
2023-03-26T23:10:24.461Z,60.08
2023-03-26T23:12:55.455Z,62.75
2023-03-26T23:15:26.167Z,64.98
2023-03-26T23:17:56.847Z,65.62
2023-03-26T23:20:37.907Z,68.07
2023-03-26T23:23:08.826Z,69.84
2023-03-26T23:25:41.078Z,70.78
2023-03-26T23:28:11.733Z,70.49
2023-03-26T23:30:42.473Z,71.77
2023-03-26T23:33:13.314Z,71.88
2023-03-26T23:35:47.787Z,73.75
2023-03-26T23:38:19.674Z,73.75
2023-03-26T23:40:57.161Z,73.31
2023-03-26T23:43:29.519Z,71.81
2023-03-26T23:46:01.431Z,70.33
2023-03-26T23:48:33.171Z,69.95
2023-03-26T23:51:07.227Z,70.76
2023-03-26T23:53:38.014Z,71.64
2023-03-26T23:56:13.826Z,71.74
2023-03-26T23:58:44.628Z,71.55
